Time;durP1;ratioP1;P1;durP2;ratioP2;P2;SDS_P1;SDS_P2;PMS_P1;PMS_P2;Temp;Humidity;BMP_temperature;BMP_pressure;BME280_temperature;BME280_humidity;BME280_pressure;Samples;Min_cycle;Max_cycle;Signal;HPM_P1;HPM_P2
2023/08/16 08:46:12;;;;;;;;;;;;;;;24.48;68.60;100085.19;1087148;54;19931;-90
2023/08/16 08:55:20;;;;;;;;;;;;;;;25.87;64.49;100081.91;1087948;54;19938;-88
2023/08/16 08:56:21;;;;;;;;;;;;;;;26.03;64.15;100074.78;1088026;54;19943;-89
2023/08/16 08:57:26;;;;;;;;;;;;;;;26.23;63.53;100076.22;1088154;54;19942;-89
2023/08/16 08:58:28;;;;;;;;;;;;;;;26.45;63.04;100073.59;1087899;47;19923;-88
2023/08/16 09:00:39;;;;;;;;;;;;;;;26.83;62.25;100077.47;1086854;54;19990;-87
2023/08/16 09:02:55;;;;;;;;;;;;;;;27.20;61.04;100074.16;1087926;54;20634;-87
2023/08/16 09:40:06;;;;;;;;;;;;;;;28.85;54.12;100027.31;1086980;47;19945;-86
2023/08/16 09:42:49;;;;;;;;;;;;;;;28.75;53.15;100026.16;1087036;47;19931;-84
2023/08/16 09:46:20;;;;;;;;;;;;;;;28.57;54.36;100021.09;1081635;54;21071;31
2023/08/16 09:48:33;;;;;;;;;;;;;;;28.79;53.51;100004.47;1087720;54;20379;-85
2023/08/16 09:49:34;;;;;;;;;;;;;;;28.77;53.71;100010.25;1087493;47;19955;-86
2023/08/16 09:50:38;;;;;;;;;;;;;;;29.11;53.46;100011.75;1087469;47;21616;-87
2023/08/16 09:52:47;;;;;;;;;;;;;;;29.60;52.02;100005.03;1087922;54;19938;-85
2023/08/16 09:53:49;;;;;;;;;;;;;;;29.69;51.88;100014.41;1087673;47;19946;-86
2023/08/16 09:54:54;;;;;;;;;;;;;;;29.89;51.81;100007.25;1087247;54;19954;-84
2023/08/16 09:57:06;;;;;;;;;;;;;;;29.93;50.68;100002.91;1087937;54;19923;-88
2023/08/16 09:58:07;;;;;;;;;;;;;;;29.52;50.62;100002.81;1089786;39;20910;-88
2023/08/16 09:59:11;;;;;;;;;;;;;;;29.47;50.39;100000.06;1087159;47;19945;-87
2023/08/16 10:00:12;;;;;;;;;;;;;;;29.39;49.85;99993.97;1087507;54;19943;-87
2023/08/16 10:01:19;;;;;;;;;;;;;;;29.62;49.63;100002.00;1087868;54;19994;-86
2023/08/16 10:02:21;;;;;;;;;;;;;;;29.70;49.21;100001.47;1087190;46;20668;-86
2023/08/16 10:03:26;;;;;;;;;;;;;;;29.51;49.93;100003.91;1087151;54;19951;-85
2023/08/16 10:04:27;;;;;;;;;;;;;;;29.41;49.81;100004.72;1087458;47;19939;-88
2023/08/16 10:05:30;;;;;;;;;;;;;;;29.16;50.32;100008.19;1087279;47;19945;-86
2023/08/16 10:06:32;;;;;;;;;;;;;;;28.96;50.81;99998.78;1087311;54;19967;-87
2023/08/16 10:07:35;;;;;;;;;;;;;;;29.01;50.39;100000.72;1087372;54;19949;-87
2023/08/16 10:08:40;;;;;;;;;;;;;;;28.99;50.34;100001.00;1087264;54;19942;-88
2023/08/16 10:09:44;;;;;;;;;;;;;;;28.88;50.35;100005.59;1087432;46;19923;-87
2023/08/16 10:10:46;;;;;;;;;;;;;;;28.92;51.19;99998.47;1087253;47;19945;-87
2023/08/16 10:11:50;;;;;;;;;;;;;;;28.98;50.71;99999.34;1087112;47;19943;-85
2023/08/16 10:12:51;;;;;;;;;;;;;;;28.95;50.38;99997.13;1090589;39;20804;-87
2023/08/16 10:16:24;;;;;;;;;;;;;;;28.91;51.19;99991.31;1087826;54;19934;-88
2023/08/16 10:17:27;;;;;;;;;;;;;;;29.13;50.93;99989.47;1087494;47;19946;-86
2023/08/16 10:18:31;;;;;;;;;;;;;;;29.23;50.54;99982.09;1087232;47;19949;-87
2023/08/16 10:19:32;;;;;;;;;;;;;;;29.28;50.75;99978.53;1087190;54;19943;-85
2023/08/16 10:20:38;;;;;;;;;;;;;;;29.41;50.38;99972.50;1087096;54;19942;-86
2023/08/16 10:21:43;;;;;;;;;;;;;;;29.41;50.02;99975.25;1087803;39;20730;-86
2023/08/16 10:22:50;;;;;;;;;;;;;;;29.29;50.21;99980.16;1087141;47;20912;-86
2023/08/16 10:23:56;;;;;;;;;;;;;;;29.20;50.75;99976.28;1089277;39;20591;-87
2023/08/16 10:25:00;;;;;;;;;;;;;;;29.06;51.02;99985.06;1087432;47;19967;-85
2023/08/16 10:26:03;;;;;;;;;;;;;;;29.23;50.93;99978.50;1087567;47;20006;-86
2023/08/16 10:27:08;;;;;;;;;;;;;;;29.36;50.81;99986.28;1087385;46;19956;-87
2023/08/16 10:28:09;;;;;;;;;;;;;;;29.19;51.07;99977.41;1087355;47;19922;-85
2023/08/16 10:29:14;;;;;;;;;;;;;;;29.18;51.13;99979.31;1087389;54;19949;-86
2023/08/16 10:30:20;;;;;;;;;;;;;;;29.11;51.24;99976.81;1087715;54;19950;-85
2023/08/16 10:32:25;;;;;;;;;;;;;;;29.25;51.13;99982.63;1087889;54;19931;-85
2023/08/16 10:33:33;;;;;;;;;;;;;;;29.11;51.45;99985.06;1087463;47;19946;-86
2023/08/16 10:34:40;;;;;;;;;;;;;;;29.45;50.72;99977.47;1087342;54;19943;-85
2023/08/16 10:35:41;;;;;;;;;;;;;;;29.59;50.44;99978.59;1087526;54;19949;-86
2023/08/16 10:36:46;;;;;;;;;;;;;;;29.90;50.26;99977.81;1087555;54;19950;-87
2023/08/16 10:37:49;;;;;;;;;;;;;;;29.91;49.83;99974.75;1087355;47;19934;-86
2023/08/16 10:38:59;;;;;;;;;;;;;;;29.85;49.59;99975.88;1087297;47;19942;-85
2023/08/16 10:40:00;;;;;;;;;;;;;;;29.71;49.93;99970.06;1087330;54;19943;-88
2023/08/16 10:41:03;;;;;;;;;;;;;;;29.55;50.39;99981.06;1087413;54;19943;-86
2023/08/16 10:42:06;;;;;;;;;;;;;;;29.82;49.99;99971.72;1087031;47;19938;-84
2023/08/16 10:43:10;;;;;;;;;;;;;;;30.00;49.60;99972.28;1086885;47;19990;-86
2023/08/16 10:44:20;;;;;;;;;;;;;;;30.29;48.94;99968.94;1086949;54;19943;-84
2023/08/16 10:45:25;;;;;;;;;;;;;;;30.22;48.74;99974.78;1086959;54;19951;-85
2023/08/16 10:46:29;;;;;;;;;;;;;;;30.26;48.64;99975.03;1086939;47;19939;-84
2023/08/16 10:47:46;;;;;;;;;;;;;;;30.47;48.29;99976.63;1087422;39;20798;-82
2023/08/16 10:48:57;;;;;;;;;;;;;;;30.60;48.36;99969.75;1086943;54;20009;-83
2023/08/16 10:50:01;;;;;;;;;;;;;;;30.72;47.91;99965.81;1086925;47;19946;-84
2023/08/16 10:51:08;;;;;;;;;;;;;;;30.49;48.18;99963.41;1086933;47;19938;-84
2023/08/16 10:52:12;;;;;;;;;;;;;;;30.10;48.89;99963.22;1086940;47;20016;-86
2023/08/16 10:53:23;;;;;;;;;;;;;;;29.95;49.11;99966.81;1090600;39;21042;-86
2023/08/16 10:54:32;;;;;;;;;;;;;;;29.80;49.89;99962.94;1086866;47;19939;-82
2023/08/16 10:55:35;;;;;;;;;;;;;;;29.70;49.76;99960.16;1086799;47;19947;-84
2023/08/16 10:56:37;;;;;;;;;;;;;;;29.85;50.04;99962.09;1086851;54;19942;-85
2023/08/16 10:57:40;;;;;;;;;;;;;;;30.11;49.45;99968.44;1086783;47;19946;-82
2023/08/16 10:58:47;;;;;;;;;;;;;;;30.33;48.92;99973.63;1087260;39;20852;-84
2023/08/16 10:59:50;;;;;;;;;;;;;;;30.46;48.62;99963.97;1086683;54;20624;-86
2023/08/16 11:00:55;;;;;;;;;;;;;;;30.61;48.37;99970.56;1088756;39;20920;-85
2023/08/16 11:02:01;;;;;;;;;;;;;;;30.58;48.24;99962.84;1086986;54;19943;-87
2023/08/16 11:03:16;;;;;;;;;;;;;;;30.57;48.37;99964.78;1086982;47;20022;-88
2023/08/16 11:05:22;;;;;;;;;;;;;;;30.01;49.74;99962.94;1087486;54;19946;-86
2023/08/16 11:06:23;;;;;;;;;;;;;;;30.19;49.61;99958.78;1088835;39;20680;-88
2023/08/16 11:07:27;;;;;;;;;;;;;;;30.01;49.70;99955.50;1087031;47;19943;-85
2023/08/16 11:08:28;;;;;;;;;;;;;;;29.93;50.17;99963.47;1087075;47;20040;-88
2023/08/16 11:09:38;;;;;;;;;;;;;;;29.70;50.51;99960.97;1087313;47;19973;-85
2023/08/16 11:10:39;;;;;;;;;;;;;;;29.67;50.61;99958.75;1086996;54;19950;-86
2023/08/16 11:11:45;;;;;;;;;;;;;;;29.49;51.10;99956.53;1086925;54;19947;-84
2023/08/16 11:12:48;;;;;;;;;;;;;;;29.76;50.61;99947.22;1086797;47;20674;-87
2023/08/16 11:13:51;;;;;;;;;;;;;;;29.88;50.03;99956.03;1086903;47;19943;-84
2023/08/16 11:14:54;;;;;;;;;;;;;;;29.65;50.74;99954.63;1086795;47;19962;-83
2023/08/16 11:15:58;;;;;;;;;;;;;;;29.62;50.96;99945.00;1086571;47;19954;-84
2023/08/16 11:16:59;;;;;;;;;;;;;;;29.60;50.97;99957.41;1086941;47;20043;-84
2023/08/16 11:18:02;;;;;;;;;;;;;;;29.68;50.77;99957.66;1086861;54;19950;-84
2023/08/16 11:19:04;;;;;;;;;;;;;;;29.76;50.80;99950.78;1086999;39;20294;-82
2023/08/16 11:20:09;;;;;;;;;;;;;;;29.70;51.05;99947.22;1086854;54;19998;-83
2023/08/16 11:21:11;;;;;;;;;;;;;;;29.60;51.01;99952.72;1086724;54;19967;-84
2023/08/16 11:22:14;;;;;;;;;;;;;;;29.72;51.18;99947.78;1086702;47;19954;-81
2023/08/16 11:23:15;;;;;;;;;;;;;;;29.65;51.11;99943.63;1087189;39;20571;-82
2023/08/16 11:24:18;;;;;;;;;;;;;;;29.66;51.41;99948.84;1086781;47;19942;-82
2023/08/16 11:25:30;;;;;;;;;;;;;;;29.66;51.63;99951.59;1086706;47;20039;-82
2023/08/16 11:26:39;;;;;;;;;;;;;;;29.61;51.49;99943.34;1086800;54;19943;-86
2023/08/16 11:27:40;;;;;;;;;;;;;;;29.59;51.84;99945.56;1086898;47;20034;-86
2023/08/16 11:28:45;;;;;;;;;;;;;;;29.46;52.00;99940.59;1087420;54;19952;-87
2023/08/16 11:31:59;;;;;;;;;;;;;;;29.61;51.21;99937.84;1087398;54;19927;-86
2023/08/16 11:33:00;;;;;;;;;;;;;;;29.58;51.34;99938.38;1088341;47;19942;-86
2023/08/16 11:34:09;;;;;;;;;;;;;;;29.73;51.24;99943.91;1088735;46;19938;-86
2023/08/16 11:36:21;;;;;;;;;;;;;;;29.59;51.25;99937.28;1089093;54;19919;-89
2023/08/16 11:37:22;;;;;;;;;;;;;;;29.64;51.00;99942.81;1088266;54;19943;-86
2023/08/16 11:39:28;;;;;;;;;;;;;;;29.93;50.58;99939.53;1074701;39;21227;31
2023/08/16 11:41:51;;;;;;;;;;;;;;;29.48;51.74;99932.88;1082462;54;20305;-86
2023/08/16 11:44:03;;;;;;;;;;;;;;;29.41;51.71;99927.66;1087491;39;20946;-89
2023/08/16 11:46:08;;;;;;;;;;;;;;;29.38;51.86;99922.69;1087828;47;19955;-86
2023/08/16 11:47:10;;;;;;;;;;;;;;;29.42;51.22;99935.63;1087633;47;19938;-85
2023/08/16 11:48:15;;;;;;;;;;;;;;;29.47;51.36;99925.72;1087556;47;19945;-86
2023/08/16 11:49:18;;;;;;;;;;;;;;;29.45;51.58;99927.94;1087397;47;19945;-84
2023/08/16 11:50:22;;;;;;;;;;;;;;;29.50;51.67;99923.25;1087250;47;19939;-84
2023/08/16 11:51:25;;;;;;;;;;;;;;;29.56;51.50;99915.81;1087305;47;21199;-84
2023/08/16 11:52:30;;;;;;;;;;;;;;;29.45;51.62;99925.19;1087542;47;19946;-84
2023/08/16 11:53:31;;;;;;;;;;;;;;;29.51;51.32;99919.41;1087488;54;19967;-86
2023/08/16 11:54:35;;;;;;;;;;;;;;;29.69;51.35;99923.53;1091501;39;20666;-85
2023/08/16 11:55:36;;;;;;;;;;;;;;;29.84;51.02;99919.13;1087291;54;19966;-87
2023/08/16 11:56:41;;;;;;;;;;;;;;;29.89;50.71;99919.09;1087330;47;19939;-82
2023/08/16 11:57:46;;;;;;;;;;;;;;;30.00;50.43;99912.53;1087244;47;21199;-85
2023/08/16 11:58:50;;;;;;;;;;;;;;;30.02;50.14;99914.97;1087394;46;19938;-85
2023/08/16 11:59:54;;;;;;;;;;;;;;;29.86;50.42;99914.16;1087371;54;20002;-85
2023/08/16 12:01:03;;;;;;;;;;;;;;;29.69;50.64;99917.19;1090000;39;21085;-85
2023/08/16 12:02:05;;;;;;;;;;;;;;;29.70;50.55;99908.66;1087696;47;19946;-86
2023/08/16 12:03:10;;;;;;;;;;;;;;;29.77;50.28;99913.03;1087256;47;20017;-84
2023/08/16 12:04:11;;;;;;;;;;;;;;;29.88;50.40;99904.53;1091241;39;20792;-86
2023/08/16 12:05:15;;;;;;;;;;;;;;;29.85;49.85;99904.25;1087320;47;19930;-86
2023/08/16 12:06:16;;;;;;;;;;;;;;;29.97;51.06;99907.56;1086680;47;20006;-86
2023/08/16 12:07:19;;;;;;;;;;;;;;;29.88;50.27;99901.75;1086663;47;19945;-85
2023/08/16 12:08:20;;;;;;;;;;;;;;;29.95;50.53;99900.69;1087051;47;20011;-84
2023/08/16 12:09:24;;;;;;;;;;;;;;;30.01;50.50;99905.91;1086986;47;19964;-86
2023/08/16 12:10:27;;;;;;;;;;;;;;;29.89;50.29;99910.84;1087200;47;19963;-87
2023/08/16 12:11:33;;;;;;;;;;;;;;;29.91;50.27;99905.88;1087474;46;19968;-84
2023/08/16 12:12:34;;;;;;;;;;;;;;;29.92;50.14;99912.22;1087082;47;19951;-86
2023/08/16 12:13:40;;;;;;;;;;;;;;;29.87;50.27;99905.63;1087098;47;19939;-86
2023/08/16 12:14:41;;;;;;;;;;;;;;;29.87;50.14;99913.03;1087086;54;19965;-86
2023/08/16 12:15:44;;;;;;;;;;;;;;;29.88;50.50;99903.69;1087157;54;19942;-86
2023/08/16 12:16:45;;;;;;;;;;;;;;;29.87;50.23;99896.50;1087197;54;19952;-87
2023/08/16 12:17:46;;;;;;;;;;;;;;;30.06;50.00;99905.06;1090052;39;20355;-86
2023/08/16 12:18:51;;;;;;;;;;;;;;;30.17;49.41;99900.34;1088963;39;20881;-86
2023/08/16 12:19:51;;;;;;;;;;;;;;;30.09;49.62;99904.50;1087114;54;19968;-85
2023/08/16 12:20:56;;;;;;;;;;;;;;;30.03;49.72;99897.34;1087170;47;20865;-85
2023/08/16 12:21:57;;;;;;;;;;;;;;;30.06;49.59;99894.06;1087313;46;19973;-85
2023/08/16 12:23:02;;;;;;;;;;;;;;;30.11;49.62;99890.47;1087132;54;19977;-86
2023/08/16 12:24:03;;;;;;;;;;;;;;;29.98;49.51;99889.91;1087305;46;20262;-87
2023/08/16 12:25:07;;;;;;;;;;;;;;;29.97;49.96;99888.28;1087071;47;19938;-87
2023/08/16 12:26:08;;;;;;;;;;;;;;;29.91;49.75;99886.59;1087336;46;19943;-87
2023/08/16 12:27:12;;;;;;;;;;;;;;;30.04;49.89;99885.22;1086965;54;19954;-86
2023/08/16 12:28:13;;;;;;;;;;;;;;;30.00;49.58;99884.13;1087129;54;19967;-85
2023/08/16 12:29:19;;;;;;;;;;;;;;;30.07;49.11;99872.81;1087106;47;19938;-86
2023/08/16 12:30:20;;;;;;;;;;;;;;;30.08;49.56;99879.97;1087352;47;19939;-87
2023/08/16 12:31:23;;;;;;;;;;;;;;;30.00;49.40;99873.09;1087123;54;20674;-85
2023/08/16 12:32:24;;;;;;;;;;;;;;;30.00;49.89;99873.94;1086954;54;19942;-85
2023/08/16 12:33:27;;;;;;;;;;;;;;;30.07;50.05;99872.81;1087429;47;19923;-86
2023/08/16 12:34:28;;;;;;;;;;;;;;;30.07;49.69;99868.16;1087488;54;19950;-86
2023/08/16 12:35:33;;;;;;;;;;;;;;;30.16;50.09;99869.22;1087241;47;19943;-87
2023/08/16 12:36:34;;;;;;;;;;;;;;;30.33;49.79;99871.63;1086929;47;19963;-85
2023/08/16 12:37:37;;;;;;;;;;;;;;;30.41;49.73;99866.66;1087162;54;19943;-86
2023/08/16 12:38:39;;;;;;;;;;;;;;;30.34;49.65;99866.97;1087043;54;19943;-85
2023/08/16 12:39:43;;;;;;;;;;;;;;;30.46;49.13;99864.72;1087335;54;19968;-86
2023/08/16 12:40:45;;;;;;;;;;;;;;;30.61;48.57;99863.81;1087007;54;19943;-85
2023/08/16 12:41:48;;;;;;;;;;;;;;;30.55;49.12;99867.72;1086710;47;19938;-84
2023/08/16 12:42:49;;;;;;;;;;;;;;;30.31;49.82;99867.50;1086752;47;19946;-85
2023/08/16 12:43:53;;;;;;;;;;;;;;;30.31;49.69;99862.00;1086825;54;19943;-84
2023/08/16 12:44:57;;;;;;;;;;;;;;;30.51;49.62;99858.34;1086695;47;19938;-84
2023/08/16 12:46:05;;;;;;;;;;;;;;;30.63;49.07;99858.84;1086298;54;19975;-85
2023/08/16 12:47:06;;;;;;;;;;;;;;;30.52;49.38;99865.53;1086809;46;19939;-82
2023/08/16 12:48:09;;;;;;;;;;;;;;;30.34;49.55;99862.25;1087193;39;20786;-84
2023/08/16 12:49:10;;;;;;;;;;;;;;;30.26;49.81;99854.56;1086905;46;20659;-86
2023/08/16 12:50:13;;;;;;;;;;;;;;;30.21;49.54;99857.34;1086575;47;19994;-83
2023/08/16 12:51:14;;;;;;;;;;;;;;;30.29;49.42;99859.53;1086740;47;19942;-85
2023/08/16 12:52:17;;;;;;;;;;;;;;;30.12;49.51;99851.59;1086670;47;19943;-84
2023/08/16 12:53:18;;;;;;;;;;;;;;;30.10;50.01;99859.31;1086756;54;19943;-84
2023/08/16 12:54:21;;;;;;;;;;;;;;;30.25;50.21;99863.13;1087115;39;20924;-84
2023/08/16 12:55:22;;;;;;;;;;;;;;;30.43;49.64;99848.72;1086707;47;21219;-84
2023/08/16 12:56:25;;;;;;;;;;;;;;;30.57;48.86;99857.25;1086817;54;19949;-83
2023/08/16 12:57:29;;;;;;;;;;;;;;;30.48;49.54;99856.16;1086722;47;19939;-83
2023/08/16 12:58:30;;;;;;;;;;;;;;;30.60;49.80;99850.31;1086659;54;19943;-84
2023/08/16 12:59:34;;;;;;;;;;;;;;;30.71;49.22;99851.94;1088313;39;20793;-84
2023/08/16 13:00:37;;;;;;;;;;;;;;;30.78;48.96;99849.66;1087697;39;20971;-84
2023/08/16 13:01:41;;;;;;;;;;;;;;;30.86;48.82;99842.75;1089988;39;21104;-84
2023/08/16 13:02:42;;;;;;;;;;;;;;;30.72;49.01;99844.47;1086723;47;19947;-84
2023/08/16 13:03:44;;;;;;;;;;;;;;;30.64;49.03;99837.63;1086697;47;19938;-83
2023/08/16 13:04:47;;;;;;;;;;;;;;;30.51;49.05;99839.03;1086851;47;19946;-82
2023/08/16 13:05:49;;;;;;;;;;;;;;;30.29;49.77;99843.00;1086872;54;19943;-85
2023/08/16 13:06:52;;;;;;;;;;;;;;;30.43;49.47;99834.94;1086798;54;19942;-83
2023/08/16 13:07:53;;;;;;;;;;;;;;;30.23;49.95;99832.25;1086799;54;19943;-83
2023/08/16 13:08:56;;;;;;;;;;;;;;;30.39;49.66;99831.09;1086746;54;20682;-82
2023/08/16 13:09:57;;;;;;;;;;;;;;;30.58;49.53;99830.47;1086778;46;19945;-85
2023/08/16 13:11:00;;;;;;;;;;;;;;;30.55;49.55;99834.63;1086797;54;19942;-85
2023/08/16 13:12:01;;;;;;;;;;;;;;;30.50;49.62;99832.69;1087048;47;19968;-85
2023/08/16 13:13:06;;;;;;;;;;;;;;;30.46;49.56;99828.03;1086687;46;20794;-84
2023/08/16 13:14:09;;;;;;;;;;;;;;;30.45;49.38;99832.72;1086885;54;20018;-86
2023/08/16 13:15:13;;;;;;;;;;;;;;;30.49;49.32;99830.22;1086778;47;19939;-85
2023/08/16 13:16:16;;;;;;;;;;;;;;;30.37;49.32;99833.28;1086724;47;19946;-84
2023/08/16 13:17:19;;;;;;;;;;;;;;;30.42;49.23;99835.22;1086959;54;19943;-85
2023/08/16 13:18:20;;;;;;;;;;;;;;;30.45;49.31;99838.25;1086905;47;19943;-84
2023/08/16 13:19:23;;;;;;;;;;;;;;;30.37;49.53;99830.53;1086960;54;20758;-84
2023/08/16 13:20:26;;;;;;;;;;;;;;;30.24;49.65;99829.22;1086898;54;19950;-86
2023/08/16 13:21:29;;;;;;;;;;;;;;;30.28;49.49;99835.81;1086870;54;19950;-84
2023/08/16 13:22:30;;;;;;;;;;;;;;;30.37;49.43;99826.97;1086823;47;20377;-85
2023/08/16 13:23:33;;;;;;;;;;;;;;;30.42;49.29;99824.19;1086815;54;19942;-85
2023/08/16 13:24:34;;;;;;;;;;;;;;;30.50;48.91;99818.91;1086794;54;19943;-84
2023/08/16 13:25:37;;;;;;;;;;;;;;;30.52;49.49;99832.44;1086789;47;19942;-83
2023/08/16 13:26:38;;;;;;;;;;;;;;;30.50;49.24;99820.84;1086781;54;20766;-84
2023/08/16 13:27:41;;;;;;;;;;;;;;;30.55;49.05;99812.56;1086717;54;19942;-83
2023/08/16 13:28:42;;;;;;;;;;;;;;;30.64;48.94;99824.66;1086599;47;19939;-83
2023/08/16 13:29:45;;;;;;;;;;;;;;;30.72;48.90;99817.72;1086700;47;20028;-84
2023/08/16 13:30:47;;;;;;;;;;;;;;;30.69;48.78;99820.22;1086689;54;19943;-84
2023/08/16 13:31:53;;;;;;;;;;;;;;;30.56;48.58;99819.75;1086775;54;19942;-84
2023/08/16 13:32:54;;;;;;;;;;;;;;;30.74;48.73;99822.94;1087656;39;20980;-84
2023/08/16 13:33:57;;;;;;;;;;;;;;;30.68;48.59;99816.63;1086752;47;19938;-84
2023/08/16 13:34:58;;;;;;;;;;;;;;;30.69;48.48;99806.44;1086609;47;19964;-84
2023/08/16 13:36:01;;;;;;;;;;;;;;;30.70;48.68;99817.19;1086851;54;20005;-83
2023/08/16 13:37:03;;;;;;;;;;;;;;;30.64;48.48;99810.88;1086820;47;19938;-83
2023/08/16 13:38:06;;;;;;;;;;;;;;;30.52;48.61;99813.13;1086821;54;19950;-85
2023/08/16 13:39:07;;;;;;;;;;;;;;;30.54;48.88;99804.59;1086742;47;19966;-85
2023/08/16 13:40:11;;;;;;;;;;;;;;;30.64;49.00;99808.09;1086665;47;19938;-84
2023/08/16 13:41:11;;;;;;;;;;;;;;;30.71;48.62;99804.19;1086899;54;19966;-84
2023/08/16 13:42:15;;;;;;;;;;;;;;;30.65;48.55;99801.47;1086755;47;19938;-83
2023/08/16 13:43:16;;;;;;;;;;;;;;;30.73;48.34;99800.06;1086849;54;19942;-82
2023/08/16 13:44:19;;;;;;;;;;;;;;;30.80;48.54;99808.00;1086746;54;19943;-83
2023/08/16 13:45:20;;;;;;;;;;;;;;;30.78;47.94;99802.78;1086820;47;19939;-85
2023/08/16 13:46:23;;;;;;;;;;;;;;;30.77;48.21;99803.88;1088154;39;20904;-86
2023/08/16 13:47:26;;;;;;;;;;;;;;;30.78;48.10;99810.25;1087040;54;19942;-84
2023/08/16 13:48:30;;;;;;;;;;;;;;;30.69;47.94;99806.44;1086825;46;19939;-84
2023/08/16 13:49:31;;;;;;;;;;;;;;;30.66;48.37;99805.06;1086744;47;19971;-83
2023/08/16 13:50:34;;;;;;;;;;;;;;;30.77;48.45;99805.84;1086741;47;19973;-83
2023/08/16 13:51:35;;;;;;;;;;;;;;;30.88;48.05;99809.34;1086947;47;19943;-83
2023/08/16 13:52:39;;;;;;;;;;;;;;;31.06;47.68;99810.59;1090248;39;21116;-83
2023/08/16 13:53:39;;;;;;;;;;;;;;;31.18;47.17;99807.50;1086820;54;20009;-83
2023/08/16 13:54:43;;;;;;;;;;;;;;;31.30;47.12;99804.34;1086557;54;19943;-83
2023/08/16 13:55:44;;;;;;;;;;;;;;;31.32;46.95;99802.13;1086819;47;19943;-85
2023/08/16 13:56:47;;;;;;;;;;;;;;;31.40;46.79;99804.25;1086773;47;19943;-83
2023/08/16 13:57:48;;;;;;;;;;;;;;;31.37;46.87;99797.38;1086804;47;19939;-84
2023/08/16 13:58:52;;;;;;;;;;;;;;;31.46;46.84;99796.75;1086763;47;19945;-83
2023/08/16 13:59:52;;;;;;;;;;;;;;;31.36;47.06;99803.22;1086726;54;19943;-84
2023/08/16 14:00:56;;;;;;;;;;;;;;;31.44;46.87;99794.28;1086846;54;19942;-82
2023/08/16 14:01:56;;;;;;;;;;;;;;;31.54;46.67;99796.97;1086613;54;19938;-83
2023/08/16 14:03:02;;;;;;;;;;;;;;;31.42;46.72;99796.53;1086781;54;19942;-83
2023/08/16 14:04:04;;;;;;;;;;;;;;;31.45;46.77;99793.19;1086648;47;19939;-83
2023/08/16 14:05:07;;;;;;;;;;;;;;;31.56;46.87;99791.13;1086725;47;19970;-83
2023/08/16 14:06:08;;;;;;;;;;;;;;;31.54;46.48;99782.31;1086627;47;19939;-83
2023/08/16 14:07:09;;;;;;;;;;;;;;;31.42;46.39;99791.00;1088191;39;20928;-84
2023/08/16 14:08:12;;;;;;;;;;;;;;;31.35;46.55;99785.00;1086690;47;19949;-84
2023/08/16 14:09:13;;;;;;;;;;;;;;;31.44;46.70;99786.00;1086660;54;19943;-83
2023/08/16 14:10:16;;;;;;;;;;;;;;;31.46;46.67;99791.22;1086781;54;19943;-84
2023/08/16 14:11:17;;;;;;;;;;;;;;;31.32;46.44;99780.03;1086855;54;20029;-83
2023/08/16 14:12:20;;;;;;;;;;;;;;;31.38;46.55;99788.00;1086717;54;19947;-83
2023/08/16 14:13:21;;;;;;;;;;;;;;;31.51;46.18;99785.66;1086662;54;20134;-84
2023/08/16 14:14:25;;;;;;;;;;;;;;;31.61;46.11;99776.44;1087540;39;20776;-83
2023/08/16 14:15:26;;;;;;;;;;;;;;;31.66;45.92;99776.38;1086704;47;19938;-85
2023/08/16 14:16:29;;;;;;;;;;;;;;;31.67;46.07;99772.50;1086705;54;20002;-84
2023/08/16 14:17:30;;;;;;;;;;;;;;;31.64;46.64;99770.34;1086653;47;19938;-85
2023/08/16 14:18:37;;;;;;;;;;;;;;;31.45;46.16;99779.38;1086620;47;19938;-83
2023/08/16 14:19:38;;;;;;;;;;;;;;;31.45;46.13;99779.38;1086683;54;19942;-84
2023/08/16 14:20:41;;;;;;;;;;;;;;;31.51;45.93;99780.13;1086648;46;19968;-82
2023/08/16 14:21:42;;;;;;;;;;;;;;;31.42;45.84;99768.91;1086725;54;19943;-84
2023/08/16 14:22:45;;;;;;;;;;;;;;;31.35;46.45;99782.22;1086622;47;19939;-83
2023/08/16 14:23:46;;;;;;;;;;;;;;;31.31;46.14;99776.47;1086720;54;19942;-84
2023/08/16 14:24:49;;;;;;;;;;;;;;;31.36;46.01;99770.06;1086539;47;19970;-83
2023/08/16 14:25:51;;;;;;;;;;;;;;;31.50;46.13;99772.97;1086703;47;19939;-83
2023/08/16 14:26:54;;;;;;;;;;;;;;;31.42;46.06;99763.38;1086754;54;20706;-83
2023/08/16 14:27:55;;;;;;;;;;;;;;;31.53;45.75;99775.13;1086783;47;20008;-83
2023/08/16 14:28:56;;;;;;;;;;;;;;;31.52;46.00;99776.25;1086688;47;20055;-83
2023/08/16 14:29:59;;;;;;;;;;;;;;;31.40;45.97;99773.88;1086665;54;19950;-83
2023/08/16 14:31:00;;;;;;;;;;;;;;;31.37;45.80;99772.53;1086773;54;19975;-84
2023/08/16 14:32:03;;;;;;;;;;;;;;;31.21;46.21;99771.03;1086712;54;20667;-83
2023/08/16 14:33:04;;;;;;;;;;;;;;;31.27;46.07;99776.19;1086671;47;19949;-83
2023/08/16 14:34:10;;;;;;;;;;;;;;;31.30;45.84;99768.47;1086563;47;19942;-82
2023/08/16 14:35:11;;;;;;;;;;;;;;;31.32;45.44;99766.25;1088077;39;20813;-83
2023/08/16 14:36:14;;;;;;;;;;;;;;;31.36;45.47;99775.59;1086621;54;19953;-84
2023/08/16 14:37:15;;;;;;;;;;;;;;;31.32;45.47;99769.00;1086639;54;19942;-84
2023/08/16 14:38:18;;;;;;;;;;;;;;;31.37;45.31;99772.53;1086740;54;19943;-85
2023/08/16 14:39:19;;;;;;;;;;;;;;;31.33;45.63;99765.13;1086521;47;19965;-84
2023/08/16 14:40:22;;;;;;;;;;;;;;;31.40;45.60;99765.59;1086578;47;19942;-83
2023/08/16 14:41:23;;;;;;;;;;;;;;;31.26;45.92;99771.81;1086628;54;19946;-84
2023/08/16 14:42:26;;;;;;;;;;;;;;;31.36;45.85;99761.78;1086839;54;19943;-84
2023/08/16 14:43:27;;;;;;;;;;;;;;;31.40;45.44;99773.88;1086734;54;19943;-83
2023/08/16 14:44:31;;;;;;;;;;;;;;;31.42;45.65;99757.84;1086576;54;19942;-84
2023/08/16 14:45:32;;;;;;;;;;;;;;;31.46;45.67;99760.84;1086665;54;19942;-84
2023/08/16 14:46:36;;;;;;;;;;;;;;;31.53;45.69;99764.09;1086215;54;19987;-84
2023/08/16 14:47:37;;;;;;;;;;;;;;;31.58;45.08;99758.53;1086558;47;19965;-85
2023/08/16 14:48:40;;;;;;;;;;;;;;;31.34;45.63;99752.97;1086602;47;19938;-85
2023/08/16 14:49:43;;;;;;;;;;;;;;;31.19;45.45;99757.50;1086486;47;19943;-84
2023/08/16 14:50:47;;;;;;;;;;;;;;;31.09;45.94;99761.16;1086611;47;19962;-85
2023/08/16 14:51:47;;;;;;;;;;;;;;;31.10;45.89;99759.22;1086610;47;20877;-85
2023/08/16 14:52:51;;;;;;;;;;;;;;;31.10;45.79;99761.97;1086648;54;19969;-85
2023/08/16 14:53:52;;;;;;;;;;;;;;;31.07;45.76;99765.34;1086630;54;19942;-85
2023/08/16 14:54:55;;;;;;;;;;;;;;;31.01;45.38;99756.28;1086522;47;19945;-85
2023/08/16 14:55:56;;;;;;;;;;;;;;;31.06;45.63;99755.41;1086469;54;19970;-84
2023/08/16 14:56:59;;;;;;;;;;;;;;;31.09;45.18;99750.13;1086641;54;19942;-84
2023/08/16 14:58:01;;;;;;;;;;;;;;;31.14;45.03;99752.03;1086653;54;19969;-84
2023/08/16 14:59:04;;;;;;;;;;;;;;;31.15;45.29;99753.69;1086674;54;19959;-85
2023/08/16 15:00:07;;;;;;;;;;;;;;;31.11;45.29;99750.69;1086990;39;20784;-85
2023/08/16 15:01:12;;;;;;;;;;;;;;;31.06;45.24;99752.66;1086724;47;19961;-82
2023/08/16 15:02:13;;;;;;;;;;;;;;;31.08;45.46;99755.94;1086623;47;21178;-83
2023/08/16 15:03:16;;;;;;;;;;;;;;;31.09;45.35;99746.53;1088019;39;21214;-86
2023/08/16 15:04:17;;;;;;;;;;;;;;;31.08;45.83;99750.44;1086564;47;19964;-83
2023/08/16 15:05:20;;;;;;;;;;;;;;;31.05;45.77;99751.00;1086699;54;19943;-83
2023/08/16 15:06:24;;;;;;;;;;;;;;;31.02;46.07;99746.03;1086582;47;21152;-83
2023/08/16 15:07:26;;;;;;;;;;;;;;;31.08;45.70;99747.66;1086944;47;19939;-83
2023/08/16 15:08:29;;;;;;;;;;;;;;;31.07;46.38;99757.06;1086979;47;20844;-83
2023/08/16 15:09:30;;;;;;;;;;;;;;;31.01;46.34;99752.66;1086997;54;20724;-83
2023/08/16 15:10:33;;;;;;;;;;;;;;;30.99;46.58;99754.88;1086998;54;19942;-83
2023/08/16 15:11:34;;;;;;;;;;;;;;;31.04;46.50;99750.16;1087043;54;19942;-87
2023/08/16 15:12:39;;;;;;;;;;;;;;;31.08;46.39;99754.00;1086903;46;19938;-85
2023/08/16 15:13:39;;;;;;;;;;;;;;;31.18;46.18;99758.63;1086930;47;19945;-86
2023/08/16 15:14:43;;;;;;;;;;;;;;;31.24;46.01;99746.44;1086800;54;19995;-84
2023/08/16 15:15:43;;;;;;;;;;;;;;;31.23;45.75;99753.06;1086894;47;19939;-85
2023/08/16 15:16:47;;;;;;;;;;;;;;;31.22;45.76;99759.69;1086920;47;19964;-87
2023/08/16 15:17:47;;;;;;;;;;;;;;;31.24;46.15;99749.19;1086954;54;20032;-82
2023/08/16 15:18:51;;;;;;;;;;;;;;;31.16;46.06;99752.59;1087071;54;19943;-84
2023/08/16 15:19:53;;;;;;;;;;;;;;;31.11;45.86;99758.97;1087003;54;19994;-83